Time;durP1;ratioP1;P1;durP2;ratioP2;P2;SDS_P1;SDS_P2;PMS_P1;PMS_P2;Temp;Humidity;BMP_temperature;BMP_pressure;BME280_temperature;BME280_humidity;BME280_pressure;Samples;Min_cycle;Max_cycle;Signal;HPM_P1;HPM_P2
2022/07/07 00:02:22;;;;;;;;;;;;;;;17.97;73.82;95302.03;5154806;27;995;-49
2022/07/07 00:04:48;;;;;;;;;;;;;;;18.13;73.37;95298.09;5154767;27;1009;-49
2022/07/07 00:07:14;;;;;;;;;;;;;;;18.19;73.94;95293.75;5158785;27;965;-49
2022/07/07 00:09:40;;;;;;;;;;;;;;;18.19;73.60;95282.91;5158565;27;1913;-49
2022/07/07 00:12:06;;;;;;;;;;;;;;;18.16;73.71;95288.75;5158552;27;1028;-49
2022/07/07 00:14:33;;;;;;;;;;;;;;;18.17;73.39;95285.00;5158744;27;949;-49
2022/07/07 00:16:59;;;;;;;;;;;;;;;18.34;72.63;95280.88;5158747;27;968;-49
2022/07/07 00:19:26;;;;;;;;;;;;;;;18.34;72.79;95288.97;5158373;27;1264;-49
2022/07/07 00:21:52;;;;;;;;;;;;;;;18.46;71.92;95291.94;5158529;27;1862;-49
2022/07/07 00:24:18;;;;;;;;;;;;;;;18.08;72.52;95293.31;5158272;27;1052;-49
2022/07/07 00:26:44;;;;;;;;;;;;;;;17.87;73.51;95291.59;5158400;27;968;-49
2022/07/07 00:29:11;;;;;;;;;;;;;;;17.79;74.57;95288.19;5158004;27;1246;-49
2022/07/07 00:31:37;;;;;;;;;;;;;;;17.93;73.86;95285.38;5158434;27;1905;-49
2022/07/07 00:34:03;;;;;;;;;;;;;;;18.08;73.26;95282.50;5157993;27;969;-49
2022/07/07 00:36:29;;;;;;;;;;;;;;;17.80;73.99;95289.88;5158216;27;1165;-49
2022/07/07 00:38:55;;;;;;;;;;;;;;;17.12;76.05;95286.00;5158095;27;1040;-49
2022/07/07 00:41:21;;;;;;;;;;;;;;;17.23;77.08;95289.19;5158044;27;1039;-49
2022/07/07 00:43:47;;;;;;;;;;;;;;;17.29;76.00;95285.69;5142242;27;1160;-49
2022/07/07 00:46:13;;;;;;;;;;;;;;;17.39;75.83;95290.72;5137226;27;1951;-49
2022/07/07 00:48:40;;;;;;;;;;;;;;;17.32;76.62;95290.69;5137177;27;1031;-49
2022/07/07 00:51:11;;;;;;;;;;;;;;;17.36;76.26;95295.50;5136719;27;1898;-49
2022/07/07 00:53:38;;;;;;;;;;;;;;;17.51;76.01;95283.69;5137089;27;957;-49
2022/07/07 00:56:04;;;;;;;;;;;;;;;17.55;76.16;95277.72;5136963;27;1031;-49
2022/07/07 00:58:31;;;;;;;;;;;;;;;17.50;76.58;95282.88;5137117;27;1051;-49
2022/07/07 01:00:57;;;;;;;;;;;;;;;17.43;76.17;95281.19;5137022;27;905;-49
2022/07/07 01:03:23;;;;;;;;;;;;;;;17.22;76.16;95274.00;5136931;27;1000;-49
2022/07/07 01:05:49;;;;;;;;;;;;;;;16.96;77.26;95276.34;5136723;27;1040;-49
2022/07/07 01:08:15;;;;;;;;;;;;;;;16.87;77.96;95277.53;5136806;27;1048;-49
2022/07/07 01:10:45;;;;;;;;;;;;;;;16.84;77.14;95286.00;5136526;27;1934;-49
2022/07/07 01:13:11;;;;;;;;;;;;;;;16.74;78.15;95270.13;5136668;27;1075;-49
2022/07/07 01:15:37;;;;;;;;;;;;;;;16.61;78.67;95282.69;5136708;27;1141;-49
2022/07/07 01:18:04;;;;;;;;;;;;;;;16.66;78.32;95278.38;5135746;27;1052;-49
2022/07/07 01:20:30;;;;;;;;;;;;;;;16.65;78.36;95278.56;5136548;27;1032;-49
2022/07/07 01:22:57;;;;;;;;;;;;;;;16.67;78.35;95277.34;5136445;27;1032;-49
2022/07/07 01:25:23;;;;;;;;;;;;;;;16.65;78.85;95281.28;5136080;27;1087;-49
2022/07/07 01:27:49;;;;;;;;;;;;;;;16.46;78.55;95277.38;5136184;27;1226;-50
2022/07/07 01:30:16;;;;;;;;;;;;;;;16.46;78.17;95278.22;5136149;27;1987;-49
2022/07/07 01:32:42;;;;;;;;;;;;;;;16.32;79.42;95282.66;5136450;27;1040;-49
2022/07/07 01:35:08;;;;;;;;;;;;;;;16.23;79.93;95277.59;5135866;27;969;-49
2022/07/07 01:37:35;;;;;;;;;;;;;;;16.16;79.80;95274.81;5136173;27;1024;-49
2022/07/07 01:40:01;;;;;;;;;;;;;;;16.47;78.56;95274.50;5135847;27;1036;-49
2022/07/07 01:42:27;;;;;;;;;;;;;;;16.48;78.87;95281.53;5140306;27;1216;-49
2022/07/07 01:44:53;;;;;;;;;;;;;;;16.58;78.94;95275.84;5156809;27;1040;-49
2022/07/07 01:47:20;;;;;;;;;;;;;;;16.61;78.86;95280.00;5156818;27;1040;-49
2022/07/07 01:49:46;;;;;;;;;;;;;;;16.48;78.90;95276.16;5156520;27;1917;-49
2022/07/07 01:52:12;;;;;;;;;;;;;;;16.31;79.33;95272.88;5156568;27;1135;-49
2022/07/07 01:54:38;;;;;;;;;;;;;;;16.20;79.67;95276.97;5156423;27;939;-49
2022/07/07 01:57:05;;;;;;;;;;;;;;;16.15;79.58;95275.88;5156426;27;1024;-49
2022/07/07 01:59:32;;;;;;;;;;;;;;;15.99;79.98;95276.94;5156487;27;1027;-49
2022/07/07 02:01:58;;;;;;;;;;;;;;;15.98;80.67;95286.06;5156360;27;1036;-49
2022/07/07 02:04:24;;;;;;;;;;;;;;;15.97;80.77;95279.00;5156128;27;1043;-49
2022/07/07 02:06:50;;;;;;;;;;;;;;;16.04;79.98;95285.28;5156317;27;1032;-49
2022/07/07 02:09:16;;;;;;;;;;;;;;;16.15;79.66;95278.56;5156105;27;1098;-49
2022/07/07 02:11:42;;;;;;;;;;;;;;;15.94;80.99;95279.38;5156210;27;1905;-49
2022/07/07 02:14:08;;;;;;;;;;;;;;;15.84;81.30;95278.84;5156255;27;1018;-48
2022/07/07 02:16:34;;;;;;;;;;;;;;;16.02;80.35;95275.72;5156354;27;999;-49
2022/07/07 02:19:02;;;;;;;;;;;;;;;16.21;79.40;95280.47;5156150;27;964;-49
2022/07/07 02:21:29;;;;;;;;;;;;;;;16.39;78.71;95288.97;5155932;27;1043;-49
2022/07/07 02:23:56;;;;;;;;;;;;;;;16.41;79.19;95286.06;5155930;27;1070;-49
2022/07/07 02:26:22;;;;;;;;;;;;;;;16.45;78.51;95298.16;5155675;27;1004;-49
2022/07/07 02:28:48;;;;;;;;;;;;;;;16.32;78.82;95289.94;5155809;27;1091;-49
2022/07/07 02:31:14;;;;;;;;;;;;;;;16.32;78.67;95289.94;5155640;27;1917;-48
2022/07/07 02:33:41;;;;;;;;;;;;;;;16.44;77.85;95288.38;5155975;27;976;-49
2022/07/07 02:36:07;;;;;;;;;;;;;;;16.19;78.66;95296.84;5155365;27;1018;-49
2022/07/07 02:38:33;;;;;;;;;;;;;;;15.94;79.69;95296.41;5155667;27;1043;-49
2022/07/07 02:41:00;;;;;;;;;;;;;;;15.74;80.11;95288.06;5155405;27;1118;-48
2022/07/07 02:43:26;;;;;;;;;;;;;;;15.74;80.94;95295.34;5143272;27;1160;-49
2022/07/07 02:45:52;;;;;;;;;;;;;;;15.67;81.15;95294.38;5134850;27;1051;-49
2022/07/07 02:48:22;;;;;;;;;;;;;;;15.67;81.29;95291.69;5134885;27;1035;-49
2022/07/07 02:50:48;;;;;;;;;;;;;;;15.59;81.42;95290.78;5134613;27;1910;-49
2022/07/07 02:53:15;;;;;;;;;;;;;;;15.54;81.74;95295.06;5134615;27;1073;-49
2022/07/07 02:55:41;;;;;;;;;;;;;;;15.82;80.93;95297.91;5134736;27;1052;-49
2022/07/07 02:58:08;;;;;;;;;;;;;;;15.99;80.43;95299.38;5134814;27;1031;-49
2022/07/07 03:00:34;;;;;;;;;;;;;;;16.00;80.12;95294.78;5134538;27;1024;-49
2022/07/07 03:03:01;;;;;;;;;;;;;;;15.86;81.00;95301.06;5134915;27;1024;-49
2022/07/07 03:05:27;;;;;;;;;;;;;;;16.01;79.13;95309.94;5134259;27;1007;-49
2022/07/07 03:07:53;;;;;;;;;;;;;;;16.11;78.97;95306.94;5134402;27;1036;-49
2022/07/07 03:10:19;;;;;;;;;;;;;;;16.14;79.43;95310.09;5134417;27;1910;-49
2022/07/07 03:12:45;;;;;;;;;;;;;;;16.08;79.56;95318.09;5134492;27;1114;-48
2022/07/07 03:15:11;;;;;;;;;;;;;;;16.11;79.02;95323.13;5134168;27;1111;-50
2022/07/07 03:17:41;;;;;;;;;;;;;;;16.18;78.95;95314.09;5134593;27;1008;-49
2022/07/07 03:20:07;;;;;;;;;;;;;;;16.00;79.87;95310.97;5134349;27;1008;-48
2022/07/07 03:22:33;;;;;;;;;;;;;;;15.87;80.52;95318.91;5134169;27;1023;-49
2022/07/07 03:24:59;;;;;;;;;;;;;;;15.75;81.04;95323.97;5134315;27;1879;-49
2022/07/07 03:27:25;;;;;;;;;;;;;;;15.94;80.87;95323.34;5134373;27;1048;-48
2022/07/07 03:29:51;;;;;;;;;;;;;;;16.20;79.13;95317.41;5134059;28;1979;-49
2022/07/07 03:32:17;;;;;;;;;;;;;;;16.10;80.08;95322.28;5134179;28;1028;-49
2022/07/07 03:34:43;;;;;;;;;;;;;;;16.17;79.71;95320.50;5134171;28;1013;-49
2022/07/07 03:37:09;;;;;;;;;;;;;;;16.13;80.17;95315.69;5133945;28;1075;-48
2022/07/07 03:39:35;;;;;;;;;;;;;;;16.00;79.96;95316.38;5134294;27;1945;-49
2022/07/07 03:42:02;;;;;;;;;;;;;;;15.90;81.04;95316.69;5138387;27;1203;-49
2022/07/07 03:44:28;;;;;;;;;;;;;;;15.92;80.63;95308.41;5159451;27;980;-49
2022/07/07 03:46:54;;;;;;;;;;;;;;;15.98;81.65;95315.72;5158915;27;1067;-49
2022/07/07 03:49:20;;;;;;;;;;;;;;;16.24;80.62;95314.31;5159024;27;1118;-49
2022/07/07 03:51:46;;;;;;;;;;;;;;;16.54;79.91;95318.56;5158758;27;1906;-49
2022/07/07 03:54:12;;;;;;;;;;;;;;;16.85;78.45;95314.69;5140809;27;973;-49
2022/07/07 03:56:39;;;;;;;;;;;;;;;17.04;78.48;95312.34;5158802;27;1857;-49
2022/07/07 03:59:05;;;;;;;;;;;;;;;16.92;77.92;95318.28;5158973;27;1038;-49
2022/07/07 04:01:31;;;;;;;;;;;;;;;17.02;77.04;95314.41;5158882;27;1023;-49
2022/07/07 04:03:57;;;;;;;;;;;;;;;17.09;78.08;95310.72;5158950;27;979;-49
2022/07/07 04:06:23;;;;;;;;;;;;;;;17.18;79.14;95306.81;5158383;27;1055;-49
2022/07/07 04:08:49;;;;;;;;;;;;;;;17.41;78.67;95313.81;5158890;27;1024;-49
2022/07/07 04:11:16;;;;;;;;;;;;;;;17.42;77.27;95310.09;5158751;27;1906;-49
2022/07/07 04:13:42;;;;;;;;;;;;;;;17.37;77.78;95309.84;5158632;27;951;-49
2022/07/07 04:16:08;;;;;;;;;;;;;;;17.55;78.05;95312.03;5158537;27;1020;-49
2022/07/07 04:18:34;;;;;;;;;;;;;;;17.81;77.29;95313.16;5158451;27;1067;-49
2022/07/07 04:21:01;;;;;;;;;;;;;;;17.94;78.15;95307.84;5158458;27;976;-49
2022/07/07 04:23:27;;;;;;;;;;;;;;;18.05;78.99;95312.66;5158353;27;1019;-49
2022/07/07 04:25:53;;;;;;;;;;;;;;;18.25;78.39;95311.88;5158459;27;1178;-48
2022/07/07 04:28:19;;;;;;;;;;;;;;;18.45;78.28;95314.63;5158108;27;1107;-49
2022/07/07 04:30:45;;;;;;;;;;;;;;;18.63;78.30;95311.28;5158437;27;1906;-49
2022/07/07 04:33:11;;;;;;;;;;;;;;;18.68;77.44;95308.81;5158105;27;1933;-49
2022/07/07 04:35:37;;;;;;;;;;;;;;;18.88;76.76;95315.09;5158034;27;1046;-49
2022/07/07 04:38:03;;;;;;;;;;;;;;;18.98;76.26;95313.84;5157921;27;1020;-49
2022/07/07 04:40:29;;;;;;;;;;;;;;;18.98;75.37;95311.13;5158188;27;1880;-49
2022/07/07 04:42:55;;;;;;;;;;;;;;;19.11;75.35;95321.97;5149892;27;1211;-49
2022/07/07 04:45:21;;;;;;;;;;;;;;;19.22;75.95;95310.47;5137323;27;968;-50
2022/07/07 04:47:48;;;;;;;;;;;;;;;19.05;74.23;95307.38;5137083;27;1040;-50
2022/07/07 04:50:14;;;;;;;;;;;;;;;19.14;76.83;95324.22;5137017;27;1901;-49
2022/07/07 04:52:40;;;;;;;;;;;;;;;19.34;73.83;95316.09;5135931;27;1039;-49
2022/07/07 04:55:06;;;;;;;;;;;;;;;19.60;72.88;95322.50;5137217;27;1052;-49
2022/07/07 04:57:33;;;;;;;;;;;;;;;19.63;71.42;95313.91;5137135;27;1000;-49
2022/07/07 04:59:59;;;;;;;;;;;;;;;19.75;71.45;95314.09;5137089;27;1099;-49
2022/07/07 05:02:25;;;;;;;;;;;;;;;19.94;71.55;95313.22;5136897;27;1093;-48
2022/07/07 05:04:51;;;;;;;;;;;;;;;19.96;70.61;95310.28;5136734;27;1011;-48
2022/07/07 05:07:18;;;;;;;;;;;;;;;20.23;71.83;95314.53;5136883;27;996;-48
2022/07/07 05:09:44;;;;;;;;;;;;;;;20.24;70.56;95315.34;5136901;27;1910;-49
2022/07/07 05:12:10;;;;;;;;;;;;;;;20.20;69.20;95314.94;5136858;27;1088;-49
2022/07/07 05:14:36;;;;;;;;;;;;;;;20.48;69.18;95308.31;5136706;27;1027;-50
2022/07/07 05:17:03;;;;;;;;;;;;;;;20.70;69.55;95307.97;5136618;27;1039;-49
2022/07/07 05:19:29;;;;;;;;;;;;;;;20.87;70.34;95314.56;5136465;27;1011;-49
2022/07/07 05:21:55;;;;;;;;;;;;;;;20.99;69.97;95311.94;5136639;27;1072;-49
2022/07/07 05:24:21;;;;;;;;;;;;;;;21.32;69.17;95318.94;5136556;27;1026;-49
2022/07/07 05:26:47;;;;;;;;;;;;;;;21.98;65.89;95307.34;5136704;27;971;-49
2022/07/07 05:29:13;;;;;;;;;;;;;;;22.80;62.99;95306.03;5136054;27;1269;-49
2022/07/07 05:31:40;;;;;;;;;;;;;;;22.93;63.60;95294.09;5136470;27;1917;-49
2022/07/07 05:34:06;;;;;;;;;;;;;;;22.80;62.28;95297.84;5135969;27;1029;-49
2022/07/07 05:36:32;;;;;;;;;;;;;;;22.74;61.89;95294.16;5136575;27;1044;-49
2022/07/07 05:38:58;;;;;;;;;;;;;;;22.66;63.36;95299.13;5136387;27;1050;-49
2022/07/07 05:41:25;;;;;;;;;;;;;;;22.69;62.90;95299.50;5136422;27;1048;-49
2022/07/07 05:43:51;;;;;;;;;;;;;;;22.68;64.28;95303.28;5152122;27;1149;-49
2022/07/07 05:46:17;;;;;;;;;;;;;;;22.72;61.61;95303.66;5156786;27;1091;-49
2022/07/07 05:48:43;;;;;;;;;;;;;;;22.76;62.47;95308.38;5156657;27;1031;-49
2022/07/07 05:51:09;;;;;;;;;;;;;;;22.84;60.07;95312.69;5156920;27;1909;-49
2022/07/07 05:53:36;;;;;;;;;;;;;;;22.80;56.44;95315.06;5156826;27;972;-49
2022/07/07 05:56:02;;;;;;;;;;;;;;;22.81;56.16;95310.41;5156594;27;1020;-49
2022/07/07 05:58:29;;;;;;;;;;;;;;;22.93;56.10;95315.88;5156635;27;977;-49
2022/07/07 06:00:55;;;;;;;;;;;;;;;22.89;57.44;95310.06;5156610;27;1047;-49
2022/07/07 06:03:21;;;;;;;;;;;;;;;22.84;57.31;95311.84;5156128;27;1099;-50
2022/07/07 06:05:48;;;;;;;;;;;;;;;22.95;56.61;95305.59;5156552;27;1025;-49
2022/07/07 06:08:14;;;;;;;;;;;;;;;23.22;57.50;95307.88;5156366;27;1033;-49
2022/07/07 06:10:40;;;;;;;;;;;;;;;23.31;57.07;95307.28;5156334;27;1909;-49
2022/07/07 06:13:06;;;;;;;;;;;;;;;23.47;56.43;95304.94;5156223;27;1854;-49
2022/07/07 06:15:33;;;;;;;;;;;;;;;23.63;56.43;95303.38;5156185;27;1054;-49
2022/07/07 06:18:00;;;;;;;;;;;;;;;23.75;54.44;95296.84;5156132;27;1032;-49
2022/07/07 06:20:26;;;;;;;;;;;;;;;23.77;54.69;95300.16;5156285;27;964;-49
2022/07/07 06:22:52;;;;;;;;;;;;;;;23.88;55.01;95303.13;5156393;27;1027;-49
2022/07/07 06:25:20;;;;;;;;;;;;;;;24.06;54.02;95304.88;5156031;27;1048;-49
2022/07/07 06:27:46;;;;;;;;;;;;;;;24.25;55.38;95295.41;5156014;27;1229;-50
2022/07/07 06:30:12;;;;;;;;;;;;;;;24.25;55.42;95300.06;5155715;27;1905;-49
2022/07/07 06:32:38;;;;;;;;;;;;;;;24.18;54.49;95302.91;5155986;27;1036;-49
2022/07/07 06:35:05;;;;;;;;;;;;;;;24.34;55.10;95296.69;5155479;27;1994;-49
2022/07/07 06:37:31;;;;;;;;;;;;;;;24.53;54.68;95299.25;5156105;27;984;-49
2022/07/07 06:39:57;;;;;;;;;;;;;;;24.68;51.77;95296.78;5155733;27;1061;-49
2022/07/07 06:42:23;;;;;;;;;;;;;;;24.75;52.63;95291.97;5152165;27;1823;-49
2022/07/07 06:44:49;;;;;;;;;;;;;;;24.76;54.56;95295.56;5134940;27;1124;-49
2022/07/07 06:47:15;;;;;;;;;;;;;;;24.92;52.35;95297.47;5134866;27;1068;-49
2022/07/07 06:49:41;;;;;;;;;;;;;;;25.00;53.63;95293.47;5134735;27;1076;-49
2022/07/07 06:52:08;;;;;;;;;;;;;;;25.05;51.88;95290.03;5134744;27;1914;-49
2022/07/07 06:54:34;;;;;;;;;;;;;;;25.15;51.82;95292.91;5134887;27;1031;-49
2022/07/07 06:57:00;;;;;;;;;;;;;;;25.07;48.69;95288.69;5134870;27;1023;-49
2022/07/07 06:59:26;;;;;;;;;;;;;;;25.08;53.49;95289.50;5134565;27;1025;-49
2022/07/07 07:01:52;;;;;;;;;;;;;;;24.96;52.05;95286.84;5134665;27;1004;-49
2022/07/07 07:04:18;;;;;;;;;;;;;;;25.17;50.91;95284.44;5134250;27;949;-49
2022/07/07 07:06:44;;;;;;;;;;;;;;;25.09;50.70;95283.78;5134847;27;1024;-49
2022/07/07 07:09:10;;;;;;;;;;;;;;;25.17;49.76;95277.06;5134396;27;1020;-49
2022/07/07 07:11:36;;;;;;;;;;;;;;;25.19;49.50;95285.03;5134648;27;1906;-49
2022/07/07 07:14:03;;;;;;;;;;;;;;;25.40;49.87;95286.19;5134402;27;1027;-49
2022/07/07 07:16:30;;;;;;;;;;;;;;;25.60;48.25;95278.28;5133855;27;1052;-49
2022/07/07 07:18:56;;;;;;;;;;;;;;;25.64;48.35;95276.69;5134789;27;1040;-50
2022/07/07 07:21:22;;;;;;;;;;;;;;;25.58;47.77;95274.16;5134440;27;1063;-50
2022/07/07 07:23:48;;;;;;;;;;;;;;;25.76;48.79;95271.09;5134601;27;965;-49
2022/07/07 07:26:14;;;;;;;;;;;;;;;25.91;50.60;95270.47;5134252;27;969;-49
2022/07/07 07:28:40;;;;;;;;;;;;;;;26.05;49.27;95274.53;5134397;27;1237;-49
2022/07/07 07:31:06;;;;;;;;;;;;;;;26.15;47.68;95257.38;5134054;27;1989;-49
2022/07/07 07:33:35;;;;;;;;;;;;;;;26.15;47.86;95276.56;5134606;28;960;-49
2022/07/07 07:36:02;;;;;;;;;;;;;;;26.12;47.04;95268.00;5134080;28;983;-49
2022/07/07 07:38:28;;;;;;;;;;;;;;;26.25;46.35;95275.84;5134459;28;1052;-49
2022/07/07 07:40:54;;;;;;;;;;;;;;;26.30;43.84;95267.69;5134206;28;1048;-49
2022/07/07 07:43:20;;;;;;;;;;;;;;;26.33;45.75;95261.66;5145739;27;1180;-49
2022/07/07 07:45:46;;;;;;;;;;;;;;;26.42;45.05;95259.31;5154794;27;948;-49
2022/07/07 07:48:12;;;;;;;;;;;;;;;26.43;47.12;95263.72;5155092;27;995;-50
2022/07/07 07:50:39;;;;;;;;;;;;;;;26.53;46.67;95260.25;5154881;27;1996;-49
2022/07/07 07:53:06;;;;;;;;;;;;;;;26.65;46.12;95264.53;5154938;27;969;-49
2022/07/07 07:55:32;;;;;;;;;;;;;;;26.77;44.84;95268.97;5154642;27;925;-50
2022/07/07 07:57:58;;;;;;;;;;;;;;;26.69;44.36;95264.81;5154893;27;964;-49
2022/07/07 08:00:24;;;;;;;;;;;;;;;26.80;43.19;95257.50;5154483;27;1075;-49
2022/07/07 08:02:51;;;;;;;;;;;;;;;26.85;44.78;95263.03;5154737;27;1048;-49
2022/07/07 08:05:18;;;;;;;;;;;;;;;26.99;45.35;95263.44;5154500;27;968;-50
2022/07/07 08:07:44;;;;;;;;;;;;;;;27.10;42.42;95261.59;5154890;27;1077;-48
2022/07/07 08:10:11;;;;;;;;;;;;;;;27.17;42.69;95270.44;5154526;27;2012;-49
2022/07/07 08:12:38;;;;;;;;;;;;;;;27.20;41.37;95272.63;5154657;27;1016;-48
2022/07/07 08:15:05;;;;;;;;;;;;;;;27.26;40.90;95274.34;5154453;27;1103;-48
2022/07/07 08:17:31;;;;;;;;;;;;;;;27.21;40.26;95285.28;5154497;27;1087;-48
2022/07/07 08:19:57;;;;;;;;;;;;;;;27.19;41.06;95281.97;5154782;27;1083;-48
2022/07/07 08:22:23;;;;;;;;;;;;;;;27.36;40.83;95281.88;5154553;27;1044;-48
2022/07/07 08:24:49;;;;;;;;;;;;;;;27.41;40.67;95277.25;5154720;27;956;-48
2022/07/07 08:27:15;;;;;;;;;;;;;;;27.40;40.66;95270.06;5156834;27;1032;-48
2022/07/07 08:29:41;;;;;;;;;;;;;;;27.43;39.81;95275.06;5158206;27;1103;-48
2022/07/07 08:32:10;;;;;;;;;;;;;;;27.43;39.60;95275.06;5158223;27;1910;-48
2022/07/07 08:34:37;;;;;;;;;;;;;;;27.43;39.96;95276.94;5158280;27;1012;-48
2022/07/07 08:37:03;;;;;;;;;;;;;;;27.34;40.50;95268.41;5158164;27;965;-48
2022/07/07 08:39:30;;;;;;;;;;;;;;;27.46;40.51;95271.75;5158372;27;1016;-48
2022/07/07 08:41:56;;;;;;;;;;;;;;;27.53;39.92;95267.97;5158004;27;1135;-48
2022/07/07 08:44:22;;;;;;;;;;;;;;;27.70;40.88;95254.88;5137410;27;1148;-49
2022/07/07 08:46:48;;;;;;;;;;;;;;;27.80;39.77;95260.41;5137162;27;1016;-49
2022/07/07 08:49:14;;;;;;;;;;;;;;;27.83;39.97;95267.28;5137446;27;1132;-49
2022/07/07 08:51:41;;;;;;;;;;;;;;;27.89;41.10;95265.41;5137167;27;1909;-49
2022/07/07 08:54:11;;;;;;;;;;;;;;;27.90;38.52;95264.34;5137236;27;973;-49
2022/07/07 08:56:38;;;;;;;;;;;;;;;27.87;38.76;95262.09;5137067;27;984;-48
2022/07/07 08:59:06;;;;;;;;;;;;;;;27.91;39.83;95263.25;5136997;27;1012;-48
2022/07/07 09:01:32;;;;;;;;;;;;;;;28.00;38.54;95258.88;5137122;27;996;-48
2022/07/07 09:03:59;;;;;;;;;;;;;;;28.04;39.45;95262.78;5136942;27;1015;-48
2022/07/07 09:06:25;;;;;;;;;;;;;;;28.04;39.26;95266.34;5137124;27;964;-48
2022/07/07 09:08:52;;;;;;;;;;;;;;;27.79;41.16;95266.16;5136910;27;1023;-48
2022/07/07 09:11:44;;;;;;;;;;;;;;;27.86;39.45;95269.50;5136580;27;1988;-48
2022/07/07 09:14:14;;;;;;;;;;;;;;;28.08;39.81;95266.63;5132206;27;1611;-49
2022/07/07 09:16:40;;;;;;;;;;;;;;;28.21;38.59;95246.03;5136598;27;1868;-49
2022/07/07 09:19:25;;;;;;;;;;;;;;;28.21;38.93;95255.13;5136555;27;1891;-49
2022/07/07 09:21:51;;;;;;;;;;;;;;;28.32;39.45;95264.22;5136562;27;972;-49
2022/07/07 09:24:18;;;;;;;;;;;;;;;28.32;39.18;95257.91;5136528;27;1028;-48
2022/07/07 09:26:45;;;;;;;;;;;;;;;28.37;39.68;95256.00;5136636;27;999;-49
2022/07/07 09:29:17;;;;;;;;;;;;;;;28.47;40.01;95255.19;5136444;27;1229;-49
2022/07/07 09:32:04;;;;;;;;;;;;;;;28.52;39.02;95252.47;5136283;27;1909;-49
2022/07/07 09:34:31;;;;;;;;;;;;;;;28.34;38.89;95244.69;5136226;27;970;-49
2022/07/07 09:39:50;;;;;;;;;;;;;;;27.94;38.92;95236.06;5135790;27;1036;-49
2022/07/07 09:42:17;;;;;;;;;;;;;;;27.18;39.91;95236.41;5138451;27;1224;-49
2022/07/07 09:44:45;;;;;;;;;;;;;;;27.09;40.04;95241.56;5157025;27;1051;-49
2022/07/07 09:47:11;;;;;;;;;;;;;;;27.21;38.22;95231.22;5156597;27;960;-49
2022/07/07 09:49:41;;;;;;;;;;;;;;;27.05;40.97;95227.53;5157093;27;1043;-48
2022/07/07 09:52:14;;;;;;;;;;;;;;;27.21;40.03;95238.63;5156642;27;1917;-49
2022/07/07 09:54:47;;;;;;;;;;;;;;;27.08;40.60;95235.22;5156851;27;1104;-49
2022/07/07 09:57:14;;;;;;;;;;;;;;;27.33;40.23;95222.81;5156501;27;1040;-53
2022/07/07 09:59:41;;;;;;;;;;;;;;;27.74;39.10;95219.47;5156664;27;1058;-49
2022/07/07 10:02:23;;;;;;;;;;;;;;;28.05;39.49;95225.94;5156381;27;1112;-49
2022/07/07 10:04:50;;;;;;;;;;;;;;;28.06;39.54;95222.09;5156489;27;960;-49
2022/07/07 10:07:27;;;;;;;;;;;;;;;27.87;40.28;95229.13;5156387;27;1051;-49
2022/07/07 10:09:54;;;;;;;;;;;;;;;27.83;40.76;95223.34;5156478;27;1984;-49
2022/07/07 10:12:21;;;;;;;;;;;;;;;27.96;40.86;95233.84;5156172;27;1055;-49
2022/07/07 10:14:49;;;;;;;;;;;;;;;28.13;39.93;95227.34;5156302;27;1090;-49
2022/07/07 10:17:16;;;;;;;;;;;;;;;28.28;39.94;95226.56;5156404;27;960;-49
2022/07/07 10:19:43;;;;;;;;;;;;;;;28.05;40.39;95220.44;5156320;27;1042;-49
2022/07/07 10:22:11;;;;;;;;;;;;;;;28.00;39.56;95217.66;5156264;27;1007;-49
2022/07/07 10:24:38;;;;;;;;;;;;;;;28.07;39.12;95215.50;5155985;27;1040;-48
2022/07/07 10:27:05;;;;;;;;;;;;;;;28.10;39.78;95212.22;5156066;27;1012;-49
2022/07/07 10:29:48;;;;;;;;;;;;;;;28.14;39.61;95210.56;5155780;27;1233;-49
2022/07/07 10:32:18;;;;;;;;;;;;;;;28.15;39.82;95204.00;5156079;27;1905;-49
2022/07/07 10:34:54;;;;;;;;;;;;;;;28.21;39.50;95205.66;5155549;27;1090;-49
2022/07/07 10:37:21;;;;;;;;;;;;;;;28.27;40.16;95209.25;5155803;27;996;-49
2022/07/07 10:39:48;;;;;;;;;;;;;;;28.30;38.97;95196.88;5155944;27;965;-49
2022/07/07 10:42:14;;;;;;;;;;;;;;;28.11;39.62;95202.84;5153697;27;1283;-49
2022/07/07 10:44:42;;;;;;;;;;;;;;;28.28;39.68;95205.38;5134853;27;1033;-49
2022/07/07 10:47:11;;;;;;;;;;;;;;;28.37;39.57;95205.69;5134999;27;991;-49
2022/07/07 10:49:38;;;;;;;;;;;;;;;28.35;39.42;95197.69;5134842;27;1043;-49
2022/07/07 10:52:10;;;;;;;;;;;;;;;28.41;38.51;95195.78;5134735;27;1974;-49
2022/07/07 10:54:38;;;;;;;;;;;;;;;28.45;37.96;95190.56;5134916;27;1015;-49
2022/07/07 10:57:05;;;;;;;;;;;;;;;28.60;39.17;95196.13;5134928;27;1048;-49
2022/07/07 10:59:51;;;;;;;;;;;;;;;28.65;38.17;95195.28;5134784;27;995;-49
2022/07/07 11:02:27;;;;;;;;;;;;;;;28.65;39.87;95185.13;5134593;27;1749;-49
2022/07/07 11:04:53;;;;;;;;;;;;;;;28.77;39.15;95187.59;5134657;27;954;-49
2022/07/07 11:07:21;;;;;;;;;;;;;;;28.87;38.39;95187.56;5134579;27;1298;-49
2022/07/07 11:10:02;;;;;;;;;;;;;;;28.97;39.00;95187.59;5134452;27;1194;-49
2022/07/07 11:12:41;;;;;;;;;;;;;;;28.98;37.75;95194.72;5134606;27;1032;-49
2022/07/07 11:15:24;;;;;;;;;;;;;;;28.70;38.06;95184.28;5134286;27;1151;-49
2022/07/07 11:17:52;;;;;;;;;;;;;;;28.55;37.53;95179.59;5134751;27;1039;-49
2022/07/07 11:20:20;;;;;;;;;;;;;;;28.42;38.40;95180.94;5134131;27;934;-49
2022/07/07 11:23:04;;;;;;;;;;;;;;;28.02;38.31;95188.84;5134552;27;1053;-49
2022/07/07 11:25:30;;;;;;;;;;;;;;;28.16;38.45;95178.16;5134236;27;1028;-49
2022/07/07 11:27:57;;;;;;;;;;;;;;;28.34;38.44;95173.22;5134462;27;1080;-49
2022/07/07 11:30:24;;;;;;;;;;;;;;;28.38;37.96;95166.91;5134129;27;1913;-49
2022/07/07 11:32:50;;;;;;;;;;;;;;;28.39;38.84;95163.06;5134480;27;1123;-49
2022/07/07 11:35:16;;;;;;;;;;;;;;;28.43;38.86;95166.09;5133848;28;1107;-49
2022/07/07 11:37:44;;;;;;;;;;;;;;;28.29;38.18;95165.81;5134398;28;1052;-49
2022/07/07 11:40:31;;;;;;;;;;;;;;;28.20;39.27;95159.19;5134027;28;1043;-49
2022/07/07 11:43:00;;;;;;;;;;;;;;;28.36;39.46;95168.28;5142631;27;1605;-49
2022/07/07 11:45:30;;;;;;;;;;;;;;;28.40;39.03;95155.63;5154794;27;1016;-48
2022/07/07 11:48:03;;;;;;;;;;;;;;;28.39;39.26;95157.56;5155031;27;1934;-49
2022/07/07 11:50:33;;;;;;;;;;;;;;;28.32;37.99;95146.00;5154619;27;1914;-48
2022/07/07 11:53:00;;;;;;;;;;;;;;;28.17;38.81;95145.97;5155129;27;995;-49
2022/07/07 11:55:27;;;;;;;;;;;;;;;28.17;39.73;95148.72;5154848;27;975;-48
2022/07/07 11:57:53;;;;;;;;;;;;;;;28.15;38.09;95137.19;5154968;27;1032;-48
2022/07/07 12:00:20;;;;;;;;;;;;;;;28.14;39.50;95133.63;5154597;27;1087;-49
2022/07/07 12:02:47;;;;;;;;;;;;;;;28.33;38.90;95136.66;5158382;27;957;-49
2022/07/07 12:05:38;;;;;;;;;;;;;;;28.16;38.68;95133.34;5158373;27;1067;-49
2022/07/07 12:08:05;;;;;;;;;;;;;;;27.81;38.93;95141.22;5146513;27;1940;-49
2022/07/07 12:10:33;;;;;;;;;;;;;;;27.82;37.46;95134.59;5158593;27;1984;-49
2022/07/07 12:13:00;;;;;;;;;;;;;;;28.02;38.91;95127.53;5158806;27;960;-49
2022/07/07 12:15:31;;;;;;;;;;;;;;;28.26;38.80;95124.28;5158535;27;1016;-48
2022/07/07 12:17:57;;;;;;;;;;;;;;;28.22;38.65;95126.75;5158725;27;1099;-49
2022/07/07 12:20:24;;;;;;;;;;;;;;;28.17;37.58;95118.50;5158285;27;1298;-48
2022/07/07 12:22:51;;;;;;;;;;;;;;;28.23;38.17;95121.00;5158781;27;1035;-48
2022/07/07 12:25:17;;;;;;;;;;;;;;;28.44;37.66;95129.25;5158386;27;1016;-48
2022/07/07 12:27:57;;;;;;;;;;;;;;;28.51;36.97;95121.53;5158427;27;1111;-49
2022/07/07 12:30:25;;;;;;;;;;;;;;;28.60;36.73;95116.34;5158349;27;1914;-48
2022/07/07 12:32:51;;;;;;;;;;;;;;;28.51;36.98;95117.97;5158585;27;1038;-48
2022/07/07 12:35:26;;;;;;;;;;;;;;;28.49;38.07;95118.25;5158062;27;963;-48
2022/07/07 12:37:52;;;;;;;;;;;;;;;28.51;37.24;95115.22;5158445;27;975;-48
2022/07/07 12:40:18;;;;;;;;;;;;;;;28.15;37.59;95112.44;5158048;27;944;-49
2022/07/07 12:42:45;;;;;;;;;;;;;;;27.85;37.88;95109.34;5151663;27;1216;-49
2022/07/07 12:45:15;;;;;;;;;;;;;;;27.94;38.77;95111.59;5137369;27;1028;-48
2022/07/07 12:47:51;;;;;;;;;;;;;;;28.08;36.73;95112.72;5137572;27;1048;-49
2022/07/07 12:50:19;;;;;;;;;;;;;;;28.28;37.80;95120.16;5137072;27;1909;-48
2022/07/07 12:52:57;;;;;;;;;;;;;;;28.32;37.38;95114.94;5137266;27;1059;-48
2022/07/07 12:55:31;;;;;;;;;;;;;;;28.18;37.55;95112.72;5136909;27;996;-48
2022/07/07 12:57:57;;;;;;;;;;;;;;;27.82;37.63;95112.63;5137434;27;1020;-49
2022/07/07 13:00:24;;;;;;;;;;;;;;;27.74;38.41;95115.91;5137043;27;961;-48
2022/07/07 13:02:50;;;;;;;;;;;;;;;27.45;36.95;95105.38;5137130;27;1012;-48
2022/07/07 13:05:17;;;;;;;;;;;;;;;27.28;38.09;95107.53;5136706;27;1043;-48